createdAt,value
2023-04-29T00:01:32.413Z,62.98
2023-04-29T00:06:26.320Z,63.66
2023-04-29T00:08:53.292Z,64.05
2023-04-29T00:11:19.921Z,64.13
2023-04-29T00:13:46.733Z,64.16
2023-04-29T00:16:13.842Z,64.46
2023-04-29T00:18:40.557Z,64.77
2023-04-29T00:21:07.254Z,64.90
2023-04-29T00:23:34.586Z,65.00
2023-04-29T00:26:01.422Z,64.92
2023-04-29T00:28:28.441Z,65.31
2023-04-29T00:30:56.219Z,65.85
2023-04-29T00:33:23.548Z,66.53
2023-04-29T00:35:50.680Z,66.74
2023-04-29T00:38:17.630Z,67.00
2023-04-29T00:40:45.401Z,67.08
2023-04-29T00:43:12.257Z,67.04
2023-04-29T00:45:38.967Z,66.86
2023-04-29T00:48:05.872Z,66.32
2023-04-29T00:50:33.133Z,66.28
2023-04-29T00:53:00.917Z,66.25
2023-04-29T00:55:28.984Z,66.25
2023-04-29T00:57:57.190Z,66.58
2023-04-29T01:00:26.179Z,66.93
2023-04-29T01:02:54.866Z,67.53
2023-04-29T01:05:21.828Z,68.11
2023-04-29T01:08:01.022Z,68.10
2023-04-29T01:10:29.928Z,68.50
2023-04-29T01:13:09.657Z,68.40
2023-04-29T01:15:48.895Z,68.77
2023-04-29T01:19:08.634Z,68.66
2023-04-29T01:21:46.390Z,68.98
2023-04-29T01:24:13.038Z,68.68
2023-04-29T01:26:42.396Z,68.86
2023-04-29T01:29:44.096Z,69.27
2023-04-29T01:32:23.247Z,69.75
2023-04-29T01:34:52.939Z,69.99
2023-04-29T01:37:28.603Z,70.36
2023-04-29T01:40:09.554Z,70.51
2023-04-29T01:42:48.348Z,70.39
2023-04-29T01:45:18.582Z,70.82
2023-04-29T01:47:47.242Z,71.08
2023-04-29T01:50:14.985Z,71.00
2023-04-29T01:52:41.704Z,70.89
2023-04-29T01:55:09.097Z,71.44
2023-04-29T01:57:44.238Z,71.49
2023-04-29T02:00:38.625Z,71.23
2023-04-29T02:03:05.859Z,71.20
2023-04-29T02:05:41.626Z,71.40
2023-04-29T02:08:08.808Z,71.27
2023-04-29T02:10:40.692Z,71.20
2023-04-29T02:13:22.255Z,71.06
2023-04-29T02:15:49.341Z,70.97
2023-04-29T02:18:16.731Z,70.93
2023-04-29T02:20:43.792Z,70.98
2023-04-29T02:23:10.681Z,70.92
2023-04-29T02:25:38.293Z,71.04
2023-04-29T02:28:05.202Z,71.65
2023-04-29T02:30:31.905Z,70.84
2023-04-29T02:32:59.349Z,71.19
2023-04-29T02:35:26.079Z,71.47
2023-04-29T02:37:54.221Z,71.47
2023-04-29T02:40:21.037Z,71.34
2023-04-29T02:42:47.659Z,71.35
2023-04-29T02:45:14.313Z,71.12
2023-04-29T02:47:41.113Z,70.54
2023-04-29T02:50:08.207Z,70.17
2023-04-29T02:52:35.175Z,70.06
2023-04-29T02:55:01.971Z,70.32
2023-04-29T02:57:29.744Z,69.69
2023-04-29T02:59:57.472Z,69.88
2023-04-29T03:02:24.460Z,70.09
2023-04-29T03:04:55.664Z,69.86
2023-04-29T03:07:22.619Z,69.56
2023-04-29T03:09:49.293Z,69.64
2023-04-29T03:12:16.863Z,69.72
2023-04-29T03:14:46.203Z,70.04
2023-04-29T03:17:13.691Z,70.54
2023-04-29T03:19:41.262Z,70.66
2023-04-29T03:22:11.723Z,71.14
2023-04-29T03:24:39.827Z,70.30
2023-04-29T03:27:06.528Z,70.63
2023-04-29T03:29:33.459Z,70.98
2023-04-29T03:32:00.456Z,71.09
2023-04-29T03:34:27.269Z,71.46
2023-04-29T03:37:17.488Z,71.42
2023-04-29T03:39:48.270Z,71.68
2023-04-29T03:42:15.069Z,71.32
2023-04-29T03:44:42.195Z,70.85
2023-04-29T03:47:09.602Z,70.78
2023-04-29T03:49:36.467Z,70.52
2023-04-29T03:52:04.785Z,70.30
2023-04-29T03:54:31.973Z,70.66
2023-04-29T03:56:58.609Z,70.18
2023-04-29T03:59:25.244Z,70.30
2023-04-29T04:01:54.120Z,70.84
2023-04-29T04:04:21.948Z,70.81
2023-04-29T04:06:52.055Z,70.78
2023-04-29T04:09:21.570Z,71.19
2023-04-29T04:11:48.467Z,71.42
2023-04-29T04:14:15.640Z,70.85
2023-04-29T04:16:42.862Z,70.96
2023-04-29T04:19:10.556Z,70.94
2023-04-29T04:21:41.078Z,71.09
2023-04-29T04:24:09.784Z,70.70
2023-04-29T04:26:37.959Z,71.13
2023-04-29T04:29:31.354Z,71.40
2023-04-29T04:32:00.760Z,71.07
2023-04-29T04:34:27.561Z,71.15
2023-04-29T04:36:56.884Z,71.31
2023-04-29T04:39:23.798Z,71.58
2023-04-29T04:41:51.827Z,70.62
2023-04-29T04:44:19.340Z,70.58
2023-04-29T04:47:06.506Z,70.58
2023-04-29T04:49:55.924Z,70.49
2023-04-29T04:52:23.225Z,70.39
2023-04-29T04:55:11.124Z,70.24
2023-04-29T04:57:43.225Z,70.39
2023-04-29T05:00:10.566Z,70.70
2023-04-29T05:02:37.915Z,71.42
2023-04-29T05:05:05.044Z,71.04
2023-04-29T05:07:36.016Z,70.77
2023-04-29T05:10:06.569Z,70.91
2023-04-29T05:12:36.592Z,70.58
2023-04-29T05:15:04.559Z,70.34
2023-04-29T05:17:32.107Z,69.75
2023-04-29T05:19:59.080Z,69.89
2023-04-29T05:22:25.805Z,69.22
2023-04-29T05:24:54.197Z,68.97
2023-04-29T05:27:21.723Z,69.16
2023-04-29T05:29:48.461Z,69.90
2023-04-29T05:32:15.482Z,69.46
2023-04-29T05:34:42.389Z,69.71
2023-04-29T05:37:09.239Z,69.68
2023-04-29T05:39:47.086Z,69.63
2023-04-29T05:42:16.426Z,69.64
2023-04-29T05:44:47.429Z,69.36
2023-04-29T05:47:14.495Z,69.66
2023-04-29T05:49:42.191Z,69.82
2023-04-29T05:52:09.138Z,69.79
2023-04-29T05:54:41.710Z,69.51
2023-04-29T05:57:08.692Z,69.46
2023-04-29T05:59:36.286Z,69.65
2023-04-29T06:02:05.120Z,69.67
2023-04-29T06:04:31.826Z,70.06
2023-04-29T06:07:33.972Z,70.03
2023-04-29T06:10:06.790Z,69.05
2023-04-29T06:12:33.597Z,68.73
2023-04-29T06:15:00.404Z,67.79
2023-04-29T06:17:29.439Z,67.17
2023-04-29T06:19:56.417Z,67.64
2023-04-29T06:22:24.016Z,67.47
2023-04-29T06:24:53.558Z,66.77
2023-04-29T06:27:27.175Z,67.07
2023-04-29T06:29:54.905Z,67.76
2023-04-29T06:32:22.135Z,68.19
2023-04-29T06:34:49.086Z,67.71
2023-04-29T06:37:56.565Z,65.98
2023-04-29T06:40:52.580Z,65.49
2023-04-29T06:43:19.157Z,64.85
2023-04-29T06:46:04.669Z,64.21
2023-04-29T06:48:54.155Z,63.46
2023-04-29T06:51:20.915Z,63.00
2023-04-29T06:53:48.155Z,62.96
2023-04-29T06:56:16.824Z,62.13
2023-04-29T06:58:43.867Z,61.58
2023-04-29T07:01:11.003Z,59.91
2023-04-29T07:03:38.491Z,58.89
2023-04-29T07:06:05.251Z,56.75
2023-04-29T07:08:32.285Z,54.42
2023-04-29T07:10:59.212Z,54.10
2023-04-29T07:13:26.201Z,53.85
2023-04-29T07:15:53.210Z,56.07
2023-04-29T07:18:19.876Z,56.32
2023-04-29T07:20:48.016Z,56.08
2023-04-29T07:23:15.516Z,56.28
2023-04-29T07:25:42.186Z,55.08
2023-04-29T07:28:11.652Z,54.31
2023-04-29T07:30:38.556Z,53.40
2023-04-29T07:33:05.390Z,51.53
2023-04-29T07:35:32.236Z,51.68
2023-04-29T07:37:58.972Z,49.96
2023-04-29T07:40:26.281Z,48.99
2023-04-29T07:42:57.510Z,47.91
2023-04-29T07:45:24.424Z,47.15
2023-04-29T07:47:51.377Z,47.14
2023-04-29T07:50:18.126Z,46.71
2023-04-29T07:52:44.745Z,47.18
2023-04-29T07:55:11.390Z,48.52
2023-04-29T07:57:38.639Z,48.32
2023-04-29T08:00:06.275Z,48.66
2023-04-29T08:02:42.592Z,48.17
2023-04-29T08:05:11.802Z,48.25
2023-04-29T08:07:38.915Z,48.01
2023-04-29T08:10:06.562Z,49.07
2023-04-29T08:12:36.810Z,50.23
2023-04-29T08:15:04.862Z,49.94
2023-04-29T08:17:31.851Z,49.29
2023-04-29T08:19:58.488Z,49.41
2023-04-29T08:22:25.204Z,50.96
2023-04-29T08:24:52.350Z,50.99
2023-04-29T08:27:19.806Z,48.90
2023-04-29T08:29:46.564Z,49.00
2023-04-29T08:32:13.268Z,48.08
2023-04-29T08:34:41.518Z,47.88
2023-04-29T08:37:08.164Z,48.56
2023-04-29T08:39:34.807Z,46.60
2023-04-29T08:42:08.220Z,44.77
2023-04-29T08:44:36.655Z,43.34
2023-04-29T08:47:04.913Z,42.65
2023-04-29T08:49:33.487Z,42.79
2023-04-29T08:52:00.840Z,43.37
2023-04-29T08:54:28.763Z,42.22
2023-04-29T08:56:56.509Z,41.65
2023-04-29T08:59:23.842Z,42.85
2023-04-29T09:01:53.555Z,42.85
2023-04-29T09:04:56.176Z,41.85
2023-04-29T09:07:24.266Z,40.31
2023-04-29T09:09:53.426Z,39.83
2023-04-29T09:12:20.259Z,40.41
2023-04-29T09:14:47.089Z,38.58
2023-04-29T09:17:16.256Z,37.31
2023-04-29T09:19:44.571Z,35.93
2023-04-29T09:22:11.588Z,35.17
2023-04-29T09:24:38.573Z,34.67
2023-04-29T09:27:05.258Z,33.47
2023-04-29T09:29:33.126Z,33.04
2023-04-29T09:32:00.122Z,33.63
2023-04-29T09:34:40.771Z,32.48
2023-04-29T09:37:28.033Z,33.98
2023-04-29T09:39:54.978Z,32.82
2023-04-29T09:42:21.432Z,33.55
2023-04-29T09:44:48.358Z,35.12
2023-04-29T09:47:14.940Z,36.36
2023-04-29T09:49:46.126Z,38.01
2023-04-29T09:52:14.989Z,37.11
2023-04-29T09:54:43.306Z,34.78
2023-04-29T09:57:11.567Z,34.39
2023-04-29T09:59:40.026Z,34.04
2023-04-29T10:02:20.850Z,33.21
2023-04-29T10:04:54.639Z,31.81
2023-04-29T10:07:21.962Z,30.10
2023-04-29T10:09:49.201Z,29.24
2023-04-29T10:12:20.664Z,28.52
2023-04-29T10:15:12.570Z,28.13
2023-04-29T10:18:01.810Z,28.47
2023-04-29T10:20:29.066Z,29.32
2023-04-29T10:22:59.901Z,27.37
2023-04-29T10:25:28.228Z,27.18
2023-04-29T10:27:55.917Z,28.52
2023-04-29T10:30:23.248Z,28.78
2023-04-29T10:32:52.379Z,28.42
2023-04-29T10:35:23.263Z,29.01
2023-04-29T10:37:50.535Z,31.28
2023-04-29T10:40:18.752Z,30.66
2023-04-29T10:42:47.719Z,29.61
2023-04-29T10:45:27.446Z,29.56
2023-04-29T10:48:05.540Z,29.43
2023-04-29T10:50:33.665Z,28.25
2023-04-29T10:53:04.947Z,26.43
2023-04-29T10:55:32.254Z,25.43
2023-04-29T10:57:59.226Z,24.65
2023-04-29T11:00:31.539Z,25.20
2023-04-29T11:03:05.068Z,25.00
2023-04-29T11:05:36.579Z,24.64
2023-04-29T11:08:24.085Z,24.29
2023-04-29T11:11:00.862Z,24.80
2023-04-29T11:13:29.470Z,25.31
2023-04-29T11:16:09.467Z,24.34
2023-04-29T11:18:37.628Z,23.24
2023-04-29T11:21:07.298Z,23.32
2023-04-29T11:23:35.099Z,23.05
2023-04-29T11:26:01.878Z,22.28
2023-04-29T11:28:30.289Z,22.22
2023-04-29T11:30:57.958Z,22.40
2023-04-29T11:33:27.234Z,23.29
2023-04-29T11:35:54.728Z,23.68
2023-04-29T11:38:43.194Z,24.24
2023-04-29T11:41:11.776Z,24.20
2023-04-29T11:43:39.824Z,23.82
2023-04-29T11:46:13.622Z,23.42
2023-04-29T11:48:48.206Z,23.35
2023-04-29T11:51:16.729Z,22.87
2023-04-29T11:53:43.692Z,24.19
2023-04-29T11:56:10.669Z,23.98
2023-04-29T11:58:37.588Z,22.94
2023-04-29T12:01:05.493Z,22.03
2023-04-29T12:03:33.815Z,20.56
2023-04-29T12:06:02.835Z,22.35
2023-04-29T12:08:30.580Z,23.78
2023-04-29T12:10:59.028Z,26.13
2023-04-29T12:13:38.252Z,26.25
2023-04-29T12:16:06.052Z,27.48
2023-04-29T12:18:33.151Z,27.63
2023-04-29T12:20:59.741Z,25.82
2023-04-29T12:23:29.720Z,25.25
2023-04-29T12:25:59.072Z,24.32
2023-04-29T12:28:27.045Z,24.87
2023-04-29T12:30:54.830Z,24.92
2023-04-29T12:33:23.600Z,24.62
2023-04-29T12:35:51.676Z,24.37
2023-04-29T12:38:22.883Z,25.42
2023-04-29T12:40:50.862Z,25.89
2023-04-29T12:43:17.532Z,25.54
2023-04-29T12:45:44.305Z,25.39
2023-04-29T12:48:18.503Z,26.79
2023-04-29T12:50:53.298Z,27.59
2023-04-29T12:53:19.767Z,28.44
2023-04-29T12:55:46.363Z,27.92
2023-04-29T12:58:12.966Z,28.61
2023-04-29T13:00:39.633Z,29.39
2023-04-29T13:03:07.229Z,30.41
2023-04-29T13:05:34.160Z,30.72
2023-04-29T13:08:01.507Z,31.57
2023-04-29T13:10:28.552Z,32.87
2023-04-29T13:12:55.070Z,32.99
2023-04-29T13:15:21.664Z,33.12
2023-04-29T13:17:48.364Z,33.50
2023-04-29T13:20:15.314Z,32.96
2023-04-29T13:22:43.542Z,33.32
2023-04-29T13:25:12.089Z,32.95
2023-04-29T13:27:39.284Z,32.57
2023-04-29T13:30:06.954Z,33.20
2023-04-29T13:32:43.776Z,33.11
2023-04-29T13:35:16.023Z,33.52
2023-04-29T13:37:42.801Z,32.63
2023-04-29T13:40:15.802Z,32.27
2023-04-29T13:42:50.088Z,31.49
2023-04-29T13:45:17.348Z,31.39
2023-04-29T13:48:04.015Z,32.06
2023-04-29T13:53:35.325Z,31.89
2023-04-29T13:58:56.153Z,33.47
2023-04-29T14:03:35.655Z,32.48
2023-04-29T14:06:02.836Z,32.41
2023-04-29T14:08:29.484Z,32.57
2023-04-29T14:10:56.041Z,31.54
2023-04-29T14:13:22.671Z,32.75
2023-04-29T14:15:49.356Z,32.27
2023-04-29T14:18:16.134Z,32.98
2023-04-29T14:20:42.769Z,33.12
2023-04-29T14:23:09.325Z,33.38
2023-04-29T14:25:35.967Z,33.72
2023-04-29T14:28:02.572Z,34.31
2023-04-29T14:30:29.259Z,34.31
2023-04-29T14:32:56.340Z,34.19
2023-04-29T14:35:22.969Z,33.81
2023-04-29T14:37:50.519Z,33.15
2023-04-29T14:40:18.410Z,32.45
2023-04-29T14:42:44.986Z,31.74
2023-04-29T14:45:12.344Z,30.96
2023-04-29T14:47:39.054Z,30.51
2023-04-29T14:50:07.199Z,30.43
2023-04-29T14:52:33.840Z,29.11
2023-04-29T14:55:00.785Z,31.70
2023-04-29T14:57:27.407Z,30.94
2023-04-29T14:59:53.936Z,31.40
2023-04-29T15:02:20.537Z,30.17
2023-04-29T15:04:47.285Z,30.99
2023-04-29T15:07:14.708Z,31.99
2023-04-29T15:09:42.093Z,30.96
2023-04-29T15:12:09.618Z,31.63
2023-04-29T15:14:36.339Z,32.28
2023-04-29T15:17:03.303Z,33.53
2023-04-29T15:19:29.977Z,32.79
2023-04-29T15:21:56.634Z,32.19
2023-04-29T15:24:23.185Z,32.75
2023-04-29T15:26:51.876Z,32.26
2023-04-29T15:29:18.593Z,33.18
2023-04-29T15:31:45.399Z,33.90
2023-04-29T15:34:12.081Z,34.11
2023-04-29T15:36:38.665Z,34.11
2023-04-29T15:39:05.277Z,35.08
2023-04-29T15:41:31.810Z,34.78
2023-04-29T15:43:58.501Z,34.80
2023-04-29T15:46:25.437Z,35.63
2023-04-29T15:48:52.113Z,36.01
2023-04-29T15:51:18.864Z,38.22
2023-04-29T15:53:45.544Z,39.68
2023-04-29T15:56:12.237Z,39.32
2023-04-29T15:58:38.889Z,40.51
2023-04-29T16:01:05.658Z,40.44
2023-04-29T16:03:32.427Z,40.58
2023-04-29T16:05:59.170Z,40.87
2023-04-29T16:08:26.411Z,40.52
2023-04-29T16:10:53.219Z,40.26
2023-04-29T16:13:19.903Z,40.08
2023-04-29T16:15:46.714Z,39.70
2023-04-29T16:18:14.662Z,40.31
2023-04-29T16:20:41.952Z,40.00
2023-04-29T16:23:08.804Z,40.64
2023-04-29T16:25:35.418Z,39.38
2023-04-29T16:28:02.201Z,39.88
2023-04-29T16:30:29.055Z,40.43
2023-04-29T16:32:55.663Z,40.90
2023-04-29T16:35:26.280Z,40.62
2023-04-29T16:37:55.702Z,42.27
2023-04-29T16:40:23.997Z,42.34
2023-04-29T16:42:51.221Z,41.44
2023-04-29T16:45:18.384Z,41.18
2023-04-29T16:47:45.368Z,40.67
2023-04-29T16:50:12.297Z,40.80
2023-04-29T16:52:38.881Z,41.26
2023-04-29T16:55:06.030Z,40.97
2023-04-29T16:57:33.548Z,41.11
2023-04-29T17:00:00.301Z,41.91
2023-04-29T17:02:27.408Z,42.28
2023-04-29T17:04:54.339Z,42.63
2023-04-29T17:07:21.369Z,42.74
2023-04-29T17:09:48.319Z,42.76
2023-04-29T17:12:15.261Z,43.19
2023-04-29T17:14:41.889Z,43.16
2023-04-29T17:17:08.574Z,42.98
2023-04-29T17:19:35.286Z,42.86
2023-04-29T17:22:02.076Z,42.93
2023-04-29T17:24:29.590Z,43.15
2023-04-29T17:26:56.170Z,43.24
2023-04-29T17:29:22.933Z,43.25
2023-04-29T17:31:54.829Z,43.96
2023-04-29T17:34:25.591Z,44.02
2023-04-29T17:36:53.330Z,44.84
2023-04-29T17:39:20.064Z,44.91
2023-04-29T17:41:46.721Z,44.94
2023-04-29T17:44:13.322Z,44.99
2023-04-29T17:46:40.647Z,45.74
2023-04-29T17:49:07.423Z,45.65
2023-04-29T17:51:34.336Z,45.87
2023-04-29T17:54:02.265Z,45.95
2023-04-29T17:56:29.179Z,46.14
2023-04-29T17:58:55.847Z,45.89
2023-04-29T18:01:22.682Z,45.82
2023-04-29T18:03:51.329Z,45.83
2023-04-29T18:06:18.470Z,45.46
2023-04-29T18:08:46.128Z,45.71
2023-04-29T18:11:12.965Z,45.23
2023-04-29T18:13:40.679Z,45.52
2023-04-29T18:16:08.805Z,45.25
2023-04-29T18:18:37.212Z,45.11
2023-04-29T18:21:04.449Z,45.34
2023-04-29T18:23:31.139Z,45.12
2023-04-29T18:25:58.068Z,45.62
2023-04-29T18:28:25.588Z,45.36
2023-04-29T18:30:52.924Z,45.75
2023-04-29T18:33:19.674Z,46.37
2023-04-29T18:35:46.541Z,46.10
2023-04-29T18:38:17.042Z,46.39
2023-04-29T18:40:44.501Z,46.63
2023-04-29T18:43:12.082Z,46.88
2023-04-29T18:45:38.883Z,47.24
2023-04-29T18:48:07.028Z,47.66
2023-04-29T18:50:34.262Z,47.81
2023-04-29T18:53:01.207Z,48.67
2023-04-29T18:55:28.083Z,48.56
2023-04-29T18:57:54.737Z,48.73
2023-04-29T19:00:21.862Z,48.96
2023-04-29T19:02:48.764Z,48.68
2023-04-29T19:05:15.925Z,48.60
2023-04-29T19:07:43.135Z,49.34
2023-04-29T19:10:10.009Z,49.40
2023-04-29T19:12:36.708Z,49.57
2023-04-29T19:15:03.592Z,49.52
2023-04-29T19:17:30.542Z,49.05
2023-04-29T19:19:57.177Z,48.86
2023-04-29T19:22:23.856Z,49.45
2023-04-29T19:24:50.607Z,50.11
2023-04-29T19:27:17.320Z,50.30
2023-04-29T19:29:44.106Z,50.86
2023-04-29T19:32:10.928Z,50.52
2023-04-29T19:34:37.821Z,50.70
2023-04-29T19:37:04.426Z,51.01
2023-04-29T19:39:31.004Z,51.20
2023-04-29T19:41:58.233Z,52.21
2023-04-29T19:44:25.024Z,52.18
2023-04-29T19:46:53.425Z,52.85
2023-04-29T19:49:20.771Z,52.83
2023-04-29T19:51:47.530Z,53.36
2023-04-29T19:54:14.539Z,53.87
2023-04-29T19:56:41.181Z,54.48
2023-04-29T19:59:07.859Z,55.19
2023-04-29T20:01:35.112Z,55.27
2023-04-29T20:04:01.832Z,55.63
2023-04-29T20:06:29.098Z,55.93
2023-04-29T20:08:56.118Z,56.11
2023-04-29T20:11:23.950Z,57.05
2023-04-29T20:13:50.732Z,57.42
2023-04-29T20:16:17.478Z,58.01
2023-04-29T20:18:44.176Z,58.22
2023-04-29T20:21:12.217Z,58.89
2023-04-29T20:23:38.854Z,59.22
2023-04-29T20:26:05.583Z,59.40
2023-04-29T20:28:32.170Z,59.30
2023-04-29T20:31:01.193Z,59.25
2023-04-29T20:33:27.958Z,58.80
2023-04-29T20:35:54.686Z,59.20
2023-04-29T20:38:22.667Z,59.13
2023-04-29T20:40:54.373Z,59.57
2023-04-29T20:43:21.150Z,60.50
2023-04-29T20:45:47.823Z,61.32
2023-04-29T20:48:14.998Z,61.32
2023-04-29T20:50:41.804Z,61.58
2023-04-29T20:53:08.734Z,62.12
2023-04-29T20:55:35.588Z,62.49
2023-04-29T20:58:02.209Z,62.45
2023-04-29T21:00:28.906Z,62.06
2023-04-29T21:02:55.616Z,62.00
2023-04-29T21:05:22.301Z,61.26
2023-04-29T21:07:49.388Z,60.78
2023-04-29T21:10:17.743Z,60.21
2023-04-29T21:12:44.357Z,60.69
2023-04-29T21:15:11.397Z,60.56
2023-04-29T21:17:38.224Z,60.66
2023-04-29T21:20:05.887Z,60.81
2023-04-29T21:22:32.520Z,60.99
2023-04-29T21:24:59.175Z,61.22
2023-04-29T21:27:25.795Z,61.22
2023-04-29T21:29:52.569Z,61.22
2023-04-29T21:32:21.602Z,61.07
2023-04-29T21:34:48.884Z,61.41
2023-04-29T21:37:15.974Z,60.89
2023-04-29T21:39:42.732Z,61.16
2023-04-29T21:42:10.800Z,61.06
2023-04-29T21:44:38.237Z,61.16
2023-04-29T21:47:05.052Z,61.65
2023-04-29T21:49:32.107Z,61.51
2023-04-29T21:51:59.460Z,61.54
2023-04-29T21:54:26.066Z,61.59
2023-04-29T21:56:52.791Z,61.34
2023-04-29T21:59:19.704Z,61.19
2023-04-29T22:01:46.419Z,61.10
2023-04-29T22:04:13.074Z,60.81
2023-04-29T22:06:39.955Z,60.57
2023-04-29T22:09:07.219Z,60.55
2023-04-29T22:11:33.973Z,60.45
2023-04-29T22:14:00.675Z,60.54
2023-04-29T22:16:27.391Z,60.18
2023-04-29T22:18:54.788Z,60.11
2023-04-29T22:21:21.351Z,60.00
2023-04-29T22:23:49.320Z,60.10
2023-04-29T22:26:16.041Z,60.07
2023-04-29T22:28:42.678Z,60.51
2023-04-29T22:31:09.404Z,60.44
2023-04-29T22:33:36.091Z,60.91
2023-04-29T22:36:03.995Z,60.98
2023-04-29T22:38:30.699Z,60.83
2023-04-29T22:40:57.306Z,61.02
2023-04-29T22:43:24.152Z,60.91
2023-04-29T22:45:57.654Z,60.81
2023-04-29T22:48:27.302Z,60.98
2023-04-29T22:50:56.124Z,61.49
2023-04-29T22:53:22.870Z,61.96
2023-04-29T22:55:57.680Z,62.17
2023-04-29T22:58:25.709Z,62.15
2023-04-29T23:00:56.390Z,62.21
2023-04-29T23:03:24.163Z,62.46
2023-04-29T23:05:51.012Z,62.22
2023-04-29T23:08:17.666Z,62.52
2023-04-29T23:10:50.880Z,62.79
2023-04-29T23:13:17.669Z,62.58
2023-04-29T23:15:45.319Z,62.69
2023-04-29T23:18:12.452Z,63.28
2023-04-29T23:20:39.237Z,63.60
2023-04-29T23:23:06.026Z,63.99
2023-04-29T23:25:32.844Z,64.27
2023-04-29T23:27:59.566Z,64.58
2023-04-29T23:30:26.297Z,64.84
2023-04-29T23:32:53.253Z,65.27
2023-04-29T23:35:19.873Z,65.96
2023-04-29T23:37:46.541Z,66.46
2023-04-29T23:40:13.278Z,66.38
2023-04-29T23:42:39.971Z,67.27
2023-04-29T23:45:07.413Z,68.44
2023-04-29T23:47:34.221Z,68.61
2023-04-29T23:50:00.852Z,68.73
2023-04-29T23:52:27.605Z,68.42
2023-04-29T23:54:54.377Z,68.94
2023-04-29T23:57:21.257Z,69.04
2023-04-29T23:59:47.938Z,69.77
